Dubois, Wyoming
Current Conditions -  °F | °C
As of 10:55 AM on Friday 28 Nov 2014 (Local Time) from KDUB Reporting Station
Scattered Clouds Scattered Clouds  
Wind Chill:   Ceiling: Unl
Heat Index:   Visibility: 10mi
Dew Point: -8°   Wind: 22mph
Humidity: 36%   Direction: 290°WNW
Pressure: 29.89"   Gusts: 30mph
Location:  43.53°N, 109.63°W
Report Text: KDUB 281755Z AUTO 29019G26KT 10SM SCT080 06/M08 A2989 RMK AO2
Loading
Personal Weather Stations






























Interactive Weather Map New forecast layout! Learn more

10-Day Weather Forecast

Advertisements
Track Severe Weather on mobile